sensor_id;sensor_type;location;lat;lon;timestamp;pressure;altitude;pressure_sealevel;temperature
1532;BMP280;759;53.170;8.210;2024-02-23T12:00:14;96904.59;;;7.60
1532;BMP280;759;53.170;8.210;2024-02-23T12:02:39;96890.34;;;7.63
1532;BMP280;759;53.170;8.210;2024-02-23T12:05:05;96937.63;;;7.68
1532;BMP280;759;53.170;8.210;2024-02-23T12:07:30;96888.53;;;7.69
1532;BMP280;759;53.170;8.210;2024-02-23T12:09:56;96923.38;;;7.72
1532;BMP280;759;53.170;8.210;2024-02-23T12:12:21;96892.00;;;7.76
1532;BMP280;759;53.170;8.210;2024-02-23T12:14:47;96917.88;;;7.75
1532;BMP280;759;53.170;8.210;2024-02-23T12:17:12;96914.31;;;7.78
1532;BMP280;759;53.170;8.210;2024-02-23T12:19:38;96990.38;;;7.85
1532;BMP280;759;53.170;8.210;2024-02-23T12:22:04;96978.34;;;8.04
1532;BMP280;759;53.170;8.210;2024-02-23T12:24:30;97011.75;;;8.20
1532;BMP280;759;53.170;8.210;2024-02-23T12:26:55;97006.72;;;8.37
1532;BMP280;759;53.170;8.210;2024-02-23T12:29:20;97011.66;;;8.44
1532;BMP280;759;53.170;8.210;2024-02-23T12:31:45;97020.28;;;8.54
1532;BMP280;759;53.170;8.210;2024-02-23T12:34:11;97097.13;;;8.61
1532;BMP280;759;53.170;8.210;2024-02-23T12:36:37;97159.88;;;8.62
1532;BMP280;759;53.170;8.210;2024-02-23T12:39:03;97800.59;;;9.04
1532;BMP280;759;53.170;8.210;2024-02-23T12:41:29;97832.84;;;9.33
1532;BMP280;759;53.170;8.210;2024-02-23T12:43:54;97875.84;;;9.26
1532;BMP280;759;53.170;8.210;2024-02-23T12:46:19;97880.00;;;9.36
1532;BMP280;759;53.170;8.210;2024-02-23T12:48:44;97873.63;;;9.15
1532;BMP280;759;53.170;8.210;2024-02-23T12:51:10;97854.53;;;9.08
1532;BMP280;759;53.170;8.210;2024-02-23T12:53:39;97858.22;;;9.20
1532;BMP280;759;53.170;8.210;2024-02-23T12:56:05;97879.69;;;9.16
1532;BMP280;759;53.170;8.210;2024-02-23T12:58:31;97867.56;;;9.06
1532;BMP280;759;53.170;8.210;2024-02-23T13:00:56;97872.72;;;9.28
1532;BMP280;759;53.170;8.210;2024-02-23T13:03:22;97878.81;;;9.10
1532;BMP280;759;53.170;8.210;2024-02-23T13:05:47;97877.19;;;8.94
1532;BMP280;759;53.170;8.210;2024-02-23T13:08:13;97837.91;;;8.85
1532;BMP280;759;53.170;8.210;2024-02-23T13:10:38;97829.03;;;8.79
1532;BMP280;759;53.170;8.210;2024-02-23T13:13:03;97827.38;;;8.72
1532;BMP280;759;53.170;8.210;2024-02-23T13:15:28;97822.97;;;8.60
1532;BMP280;759;53.170;8.210;2024-02-23T13:17:53;97817.19;;;8.62
1532;BMP280;759;53.170;8.210;2024-02-23T13:20:19;97837.28;;;8.53
1532;BMP280;759;53.170;8.210;2024-02-23T13:22:44;97772.91;;;8.46
1532;BMP280;759;53.170;8.210;2024-02-23T13:25:09;97797.91;;;8.39
1532;BMP280;759;53.170;8.210;2024-02-23T13:27:34;97750.84;;;8.27
1532;BMP280;759;53.170;8.210;2024-02-23T13:29:59;97743.28;;;8.25
1532;BMP280;759;53.170;8.210;2024-02-23T13:32:25;97733.69;;;8.19
1532;BMP280;759;53.170;8.210;2024-02-23T13:34:50;97725.94;;;8.11
1532;BMP280;759;53.170;8.210;2024-02-23T13:37:17;97699.94;;;8.16
1532;BMP280;759;53.170;8.210;2024-02-23T13:39:42;97658.22;;;8.12
1532;BMP280;759;53.170;8.210;2024-02-23T13:42:07;97648.00;;;8.11
1532;BMP280;759;53.170;8.210;2024-02-23T13:44:34;97595.22;;;8.19
1532;BMP280;759;53.170;8.210;2024-02-23T13:47:00;97609.72;;;8.18
1532;BMP280;759;53.170;8.210;2024-02-23T13:49:25;97570.69;;;8.15
1532;BMP280;759;53.170;8.210;2024-02-23T13:51:50;97539.31;;;8.09
1532;BMP280;759;53.170;8.210;2024-02-23T13:54:16;97530.59;;;8.00
1532;BMP280;759;53.170;8.210;2024-02-23T13:56:41;97478.25;;;8.06
1532;BMP280;759;53.170;8.210;2024-02-23T13:59:06;97478.97;;;8.06
1532;BMP280;759;53.170;8.210;2024-02-23T14:01:31;97437.44;;;8.00
1532;BMP280;759;53.170;8.210;2024-02-23T14:03:56;97389.72;;;7.96
1532;BMP280;759;53.170;8.210;2024-02-23T14:06:22;97297.00;;;7.95
1532;BMP280;759;53.170;8.210;2024-02-23T14:08:47;97187.78;;;7.89
1532;BMP280;759;53.170;8.210;2024-02-23T14:11:12;97130.19;;;7.86
1532;BMP280;759;53.170;8.210;2024-02-23T14:13:38;97099.31;;;7.79
1532;BMP280;759;53.170;8.210;2024-02-23T14:16:03;97056.91;;;7.76
1532;BMP280;759;53.170;8.210;2024-02-23T14:18:30;97034.22;;;7.75
1532;BMP280;759;53.170;8.210;2024-02-23T14:20:57;96998.59;;;7.72
1532;BMP280;759;53.170;8.210;2024-02-23T14:23:22;96980.44;;;7.70
1532;BMP280;759;53.170;8.210;2024-02-23T14:25:47;96930.47;;;7.75
1532;BMP280;759;53.170;8.210;2024-02-23T14:28:12;96947.41;;;7.77
1532;BMP280;759;53.170;8.210;2024-02-23T14:30:38;96955.66;;;7.79
1532;BMP280;759;53.170;8.210;2024-02-23T14:33:05;96994.84;;;7.79
1532;BMP280;759;53.170;8.210;2024-02-23T14:35:30;97031.81;;;7.77
1532;BMP280;759;53.170;8.210;2024-02-23T14:37:55;97080.09;;;7.84
1532;BMP280;759;53.170;8.210;2024-02-23T14:40:21;97050.56;;;7.97
1532;BMP280;759;53.170;8.210;2024-02-23T14:42:46;97164.34;;;8.02
1532;BMP280;759;53.170;8.210;2024-02-23T14:45:11;97176.03;;;8.05
1532;BMP280;759;53.170;8.210;2024-02-23T14:47:38;97226.41;;;8.08
1532;BMP280;759;53.170;8.210;2024-02-23T14:50:03;97225.84;;;8.04
1532;BMP280;759;53.170;8.210;2024-02-23T14:52:28;97195.94;;;8.09
1532;BMP280;759;53.170;8.210;2024-02-23T14:54:54;97198.66;;;8.00
1532;BMP280;759;53.170;8.210;2024-02-23T14:57:19;97198.22;;;8.02
1532;BMP280;759;53.170;8.210;2024-02-23T14:59:44;97181.53;;;8.01
1532;BMP280;759;53.170;8.210;2024-02-23T15:02:14;97187.13;;;8.03
1532;BMP280;759;53.170;8.210;2024-02-23T15:04:43;97204.56;;;8.04
1532;BMP280;759;53.170;8.210;2024-02-23T15:07:08;97218.50;;;7.99
1532;BMP280;759;53.170;8.210;2024-02-23T15:09:33;97201.31;;;8.00
1532;BMP280;759;53.170;8.210;2024-02-23T15:11:59;97171.31;;;8.00
1532;BMP280;759;53.170;8.210;2024-02-23T15:14:24;97167.16;;;7.99
1532;BMP280;759;53.170;8.210;2024-02-23T15:16:49;97158.28;;;8.02
1532;BMP280;759;53.170;8.210;2024-02-23T15:19:14;97174.72;;;8.00
1532;BMP280;759;53.170;8.210;2024-02-23T15:21:39;97201.59;;;8.02
1532;BMP280;759;53.170;8.210;2024-02-23T15:24:06;97254.09;;;8.02
1532;BMP280;759;53.170;8.210;2024-02-23T15:26:31;97238.41;;;8.04
1532;BMP280;759;53.170;8.210;2024-02-23T15:28:56;97263.09;;;8.04
1532;BMP280;759;53.170;8.210;2024-02-23T15:31:21;97335.53;;;8.08
1532;BMP280;759;53.170;8.210;2024-02-23T15:33:47;97392.91;;;8.09
1532;BMP280;759;53.170;8.210;2024-02-23T15:36:12;97410.06;;;8.08
1532;BMP280;759;53.170;8.210;2024-02-23T15:38:40;97388.78;;;8.08
1532;BMP280;759;53.170;8.210;2024-02-23T15:41:05;97404.91;;;8.05
1532;BMP280;759;53.170;8.210;2024-02-23T15:43:30;97430.16;;;8.09
1532;BMP280;759;53.170;8.210;2024-02-23T15:45:56;97396.03;;;8.08
1532;BMP280;759;53.170;8.210;2024-02-23T15:48:21;97389.06;;;8.10
1532;BMP280;759;53.170;8.210;2024-02-23T15:50:47;97419.25;;;8.07
1532;BMP280;759;53.170;8.210;2024-02-23T15:53:13;97461.84;;;8.07
1532;BMP280;759;53.170;8.210;2024-02-23T15:55:38;97460.66;;;8.08
1532;BMP280;759;53.170;8.210;2024-02-23T15:58:04;97427.81;;;8.11
1532;BMP280;759;53.170;8.210;2024-02-23T16:00:29;97437.28;;;8.12
1532;BMP280;759;53.170;8.210;2024-02-23T16:02:54;97441.28;;;8.08
1532;BMP280;759;53.170;8.210;2024-02-23T16:05:20;97482.66;;;8.09
1532;BMP280;759;53.170;8.210;2024-02-23T16:07:45;97483.13;;;8.07
1532;BMP280;759;53.170;8.210;2024-02-23T16:10:13;97446.31;;;8.06
1532;BMP280;759;53.170;8.210;2024-02-23T16:12:39;97443.94;;;8.08
1532;BMP280;759;53.170;8.210;2024-02-23T16:15:04;97458.59;;;8.03
1532;BMP280;759;53.170;8.210;2024-02-23T16:17:30;97406.53;;;8.02
1532;BMP280;759;53.170;8.210;2024-02-23T16:19:55;97407.72;;;8.01
1532;BMP280;759;53.170;8.210;2024-02-23T16:22:20;97383.50;;;7.99
1532;BMP280;759;53.170;8.210;2024-02-23T16:24:46;97365.75;;;7.96
1532;BMP280;759;53.170;8.210;2024-02-23T16:27:11;97365.03;;;7.96
1532;BMP280;759;53.170;8.210;2024-02-23T16:29:36;97385.28;;;7.93
1532;BMP280;759;53.170;8.210;2024-02-23T16:32:02;97305.16;;;7.91
1532;BMP280;759;53.170;8.210;2024-02-23T16:34:28;97311.13;;;7.86
1532;BMP280;759;53.170;8.210;2024-02-23T16:36:53;97257.31;;;7.82
1532;BMP280;759;53.170;8.210;2024-02-23T16:39:18;97200.56;;;7.76
1532;BMP280;759;53.170;8.210;2024-02-23T16:41:43;97179.28;;;7.76
1532;BMP280;759;53.170;8.210;2024-02-23T16:44:09;97135.28;;;7.75
1532;BMP280;759;53.170;8.210;2024-02-23T16:46:36;97096.56;;;7.74
1532;BMP280;759;53.170;8.210;2024-02-23T16:49:01;97061.41;;;7.69
1532;BMP280;759;53.170;8.210;2024-02-23T16:51:29;97051.97;;;7.68
1532;BMP280;759;53.170;8.210;2024-02-23T16:53:54;97046.81;;;7.65
1532;BMP280;759;53.170;8.210;2024-02-23T16:56:19;97056.25;;;7.66
1532;BMP280;759;53.170;8.210;2024-02-23T16:58:45;97025.28;;;7.63
1532;BMP280;759;53.170;8.210;2024-02-23T17:01:10;96990.13;;;7.59
1532;BMP280;759;53.170;8.210;2024-02-23T17:03:35;96975.81;;;7.56
1532;BMP280;759;53.170;8.210;2024-02-23T17:06:01;96969.03;;;7.55
1532;BMP280;759;53.170;8.210;2024-02-23T17:08:29;96975.53;;;7.54
1532;BMP280;759;53.170;8.210;2024-02-23T17:10:54;96958.09;;;7.53
1532;BMP280;759;53.170;8.210;2024-02-23T17:13:19;96962.88;;;7.49
1532;BMP280;759;53.170;8.210;2024-02-23T17:15:44;96919.03;;;7.44
1532;BMP280;759;53.170;8.210;2024-02-23T17:18:09;96882.00;;;7.41
1532;BMP280;759;53.170;8.210;2024-02-23T17:20:35;96848.53;;;7.34
1532;BMP280;759;53.170;8.210;2024-02-23T17:23:01;96852.56;;;7.29
1532;BMP280;759;53.170;8.210;2024-02-23T17:25:27;96774.13;;;7.19
1532;BMP280;759;53.170;8.210;2024-02-23T17:27:52;96751.75;;;7.11
1532;BMP280;759;53.170;8.210;2024-02-23T17:30:18;96739.38;;;7.08
1532;BMP280;759;53.170;8.210;2024-02-23T17:32:43;96679.56;;;6.98
1532;BMP280;759;53.170;8.210;2024-02-23T17:35:08;96609.88;;;6.88
1532;BMP280;759;53.170;8.210;2024-02-23T17:37:35;96593.66;;;6.86
1532;BMP280;759;53.170;8.210;2024-02-23T17:40:00;96539.00;;;6.79
1532;BMP280;759;53.170;8.210;2024-02-23T17:42:25;96495.50;;;6.77
1532;BMP280;759;53.170;8.210;2024-02-23T17:44:51;96476.09;;;6.71
1532;BMP280;759;53.170;8.210;2024-02-23T17:47:16;96459.63;;;6.66
1532;BMP280;759;53.170;8.210;2024-02-23T17:49:41;96443.25;;;6.68
1532;BMP280;759;53.170;8.210;2024-02-23T17:52:06;96435.47;;;6.64
1532;BMP280;759;53.170;8.210;2024-02-23T17:54:32;96422.19;;;6.64
1532;BMP280;759;53.170;8.210;2024-02-23T17:56:57;96409.13;;;6.61
1532;BMP280;759;53.170;8.210;2024-02-23T17:59:22;96390.47;;;6.55
1532;BMP280;759;53.170;8.210;2024-02-23T18:01:47;96352.06;;;6.51
1532;BMP280;759;53.170;8.210;2024-02-23T18:04:13;96311.41;;;6.44
1532;BMP280;759;53.170;8.210;2024-02-23T18:06:38;96306.88;;;6.45
1532;BMP280;759;53.170;8.210;2024-02-23T18:09:03;96268.69;;;6.42
1532;BMP280;759;53.170;8.210;2024-02-23T18:11:28;96238.66;;;6.31
1532;BMP280;759;53.170;8.210;2024-02-23T18:13:54;96205.81;;;6.28
1532;BMP280;759;53.170;8.210;2024-02-23T18:16:20;96243.22;;;6.30
1532;BMP280;759;53.170;8.210;2024-02-23T18:18:45;96260.31;;;6.29
1532;BMP280;759;53.170;8.210;2024-02-23T18:21:10;96260.31;;;6.29
1532;BMP280;759;53.170;8.210;2024-02-23T18:23:39;96267.31;;;6.27
1532;BMP280;759;53.170;8.210;2024-02-23T18:26:04;96261.00;;;6.24
1532;BMP280;759;53.170;8.210;2024-02-23T18:28:29;96208.88;;;6.21
1532;BMP280;759;53.170;8.210;2024-02-23T18:30:57;96192.63;;;6.13
1532;BMP280;759;53.170;8.210;2024-02-23T18:33:23;96152.06;;;6.07
1532;BMP280;759;53.170;8.210;2024-02-23T18:35:48;96146.00;;;6.07
1532;BMP280;759;53.170;8.210;2024-02-23T18:38:13;96141.25;;;6.11
1532;BMP280;759;53.170;8.210;2024-02-23T18:40:38;96149.47;;;6.13
1532;BMP280;759;53.170;8.210;2024-02-23T18:43:03;96171.22;;;6.17
1532;BMP280;759;53.170;8.210;2024-02-23T18:45:29;96149.72;;;6.15
1532;BMP280;759;53.170;8.210;2024-02-23T18:47:54;96163.44;;;6.13
1532;BMP280;759;53.170;8.210;2024-02-23T18:50:19;96149.47;;;6.13
1532;BMP280;759;53.170;8.210;2024-02-23T18:52:45;96126.50;;;6.10
1532;BMP280;759;53.170;8.210;2024-02-23T18:55:10;96185.13;;;6.12
1532;BMP280;759;53.170;8.210;2024-02-23T18:57:35;96213.53;;;6.06
1532;BMP280;759;53.170;8.210;2024-02-23T19:00:01;96196.13;;;6.04
1532;BMP280;759;53.170;8.210;2024-02-23T19:02:26;96174.38;;;6.00
1532;BMP280;759;53.170;8.210;2024-02-23T19:04:51;96175.84;;;6.01
1532;BMP280;759;53.170;8.210;2024-02-23T19:07:16;96191.16;;;6.12
1532;BMP280;759;53.170;8.210;2024-02-23T19:09:45;96189.97;;;6.13
1532;BMP280;759;53.170;8.210;2024-02-23T19:12:11;96195.00;;;6.11
1532;BMP280;759;53.170;8.210;2024-02-23T19:14:37;96181.28;;;6.13
1532;BMP280;759;53.170;8.210;2024-02-23T19:17:03;96189.50;;;6.15
1532;BMP280;759;53.170;8.210;2024-02-23T19:19:28;96197.81;;;6.22
1532;BMP280;759;53.170;8.210;2024-02-23T19:21:54;96190.38;;;6.27
1532;BMP280;759;53.170;8.210;2024-02-23T19:24:20;96204.63;;;6.29
1532;BMP280;759;53.170;8.210;2024-02-23T19:26:45;96207.53;;;6.31
1532;BMP280;759;53.170;8.210;2024-02-23T19:29:11;96221.59;;;6.37
1532;BMP280;759;53.170;8.210;2024-02-23T19:31:36;96224.03;;;6.41
1532;BMP280;759;53.170;8.210;2024-02-23T19:34:02;96275.28;;;6.47
1532;BMP280;759;53.170;8.210;2024-02-23T19:36:29;96296.25;;;6.45
1532;BMP280;759;53.170;8.210;2024-02-23T19:38:54;96284.69;;;6.48
1532;BMP280;759;53.170;8.210;2024-02-23T19:41:19;96283.06;;;6.51
1532;BMP280;759;53.170;8.210;2024-02-23T19:43:44;96323.09;;;6.53
1532;BMP280;759;53.170;8.210;2024-02-23T19:46:10;96324.56;;;6.54
1532;BMP280;759;53.170;8.210;2024-02-23T19:48:36;96393.56;;;6.54
1532;BMP280;759;53.170;8.210;2024-02-23T19:51:01;96404.72;;;6.58
1532;BMP280;759;53.170;8.210;2024-02-23T19:53:30;96377.19;;;6.55
1532;BMP280;759;53.170;8.210;2024-02-23T19:55:55;96353.47;;;6.52
1532;BMP280;759;53.170;8.210;2024-02-23T19:58:20;96325.75;;;6.53
1532;BMP280;759;53.170;8.210;2024-02-23T20:00:45;96334.22;;;6.51
1532;BMP280;759;53.170;8.210;2024-02-23T20:03:11;96325.53;;;6.51
1532;BMP280;759;53.170;8.210;2024-02-23T20:05:36;96328.63;;;6.49
1532;BMP280;759;53.170;8.210;2024-02-23T20:08:01;96308.84;;;6.50
1532;BMP280;759;53.170;8.210;2024-02-23T20:10:27;96283.69;;;6.45
1532;BMP280;759;53.170;8.210;2024-02-23T20:12:52;96259.63;;;6.49
1532;BMP280;759;53.170;8.210;2024-02-23T20:15:17;96312.50;;;6.53
1532;BMP280;759;53.170;8.210;2024-02-23T20:17:42;96302.59;;;6.53
1532;BMP280;759;53.170;8.210;2024-02-23T20:20:11;96301.41;;;6.54
1532;BMP280;759;53.170;8.210;2024-02-23T20:22:36;96318.06;;;6.55
1532;BMP280;759;53.170;8.210;2024-02-23T20:25:02;96345.59;;;6.57
1532;BMP280;759;53.170;8.210;2024-02-23T20:27:27;96360.81;;;6.57
1532;BMP280;759;53.170;8.210;2024-02-23T20:29:53;96384.03;;;6.62
1532;BMP280;759;53.170;8.210;2024-02-23T20:32:18;96415.63;;;6.60
1532;BMP280;759;53.170;8.210;2024-02-23T20:34:43;96459.56;;;6.61
1532;BMP280;759;53.170;8.210;2024-02-23T20:37:08;96462.56;;;6.54
1532;BMP280;759;53.170;8.210;2024-02-23T20:39:34;96480.88;;;6.52
1532;BMP280;759;53.170;8.210;2024-02-23T20:41:59;96458.59;;;6.43
1532;BMP280;759;53.170;8.210;2024-02-23T20:44:24;96397.66;;;6.34
1532;BMP280;759;53.170;8.210;2024-02-23T20:46:49;96375.13;;;6.30
1532;BMP280;759;53.170;8.210;2024-02-23T20:49:15;96340.03;;;6.20
1532;BMP280;759;53.170;8.210;2024-02-23T20:51:40;96285.28;;;6.17
1532;BMP280;759;53.170;8.210;2024-02-23T20:54:09;96266.88;;;6.13
1532;BMP280;759;53.170;8.210;2024-02-23T20:56:34;96233.13;;;6.14
1532;BMP280;759;53.170;8.210;2024-02-23T20:58:59;96207.81;;;6.13
1532;BMP280;759;53.170;8.210;2024-02-23T21:01:25;96177.63;;;6.10
1532;BMP280;759;53.170;8.210;2024-02-23T21:03:50;96142.41;;;6.10
1532;BMP280;759;53.170;8.210;2024-02-23T21:06:16;96152.25;;;6.03
1532;BMP280;759;53.170;8.210;2024-02-23T21:08:43;96147.94;;;6.06
1532;BMP280;759;53.170;8.210;2024-02-23T21:11:09;96133.22;;;6.05
1532;BMP280;759;53.170;8.210;2024-02-23T21:13:34;96134.94;;;6.08
1532;BMP280;759;53.170;8.210;2024-02-23T21:15:59;96132.28;;;6.08
1532;BMP280;759;53.170;8.210;2024-02-23T21:18:24;96122.94;;;6.13
1532;BMP280;759;53.170;8.210;2024-02-23T21:20:49;96113.78;;;6.14
1532;BMP280;759;53.170;8.210;2024-02-23T21:23:15;96123.84;;;6.10
1532;BMP280;759;53.170;8.210;2024-02-23T21:25:40;96138.31;;;6.09
1532;BMP280;759;53.170;8.210;2024-02-23T21:28:05;96138.31;;;6.09
1532;BMP280;759;53.170;8.210;2024-02-23T21:30:31;96129.56;;;6.02
1532;BMP280;759;53.170;8.210;2024-02-23T21:32:56;96087.81;;;5.97
1532;BMP280;759;53.170;8.210;2024-02-23T21:35:23;96076.91;;;5.95
1532;BMP280;759;53.170;8.210;2024-02-23T21:37:48;96058.66;;;5.97
1532;BMP280;759;53.170;8.210;2024-02-23T21:40:13;96019.81;;;5.94
1532;BMP280;759;53.170;8.210;2024-02-23T21:42:39;95978.56;;;5.93
1532;BMP280;759;53.170;8.210;2024-02-23T21:45:04;95958.31;;;5.90
1532;BMP280;759;53.170;8.210;2024-02-23T21:47:30;95916.09;;;5.87
1532;BMP280;759;53.170;8.210;2024-02-23T21:49:55;95888.31;;;5.82
1532;BMP280;759;53.170;8.210;2024-02-23T21:52:20;95866.84;;;5.80
1532;BMP280;759;53.170;8.210;2024-02-23T21:54:45;95821.50;;;5.72
1532;BMP280;759;53.170;8.210;2024-02-23T21:57:10;95774.97;;;5.66
1532;BMP280;759;53.170;8.210;2024-02-23T21:59:36;95722.22;;;5.62
1532;BMP280;759;53.170;8.210;2024-02-23T22:02:01;95574.28;;;5.60
1532;BMP280;759;53.170;8.210;2024-02-23T22:04:33;95549.22;;;5.56
1532;BMP280;759;53.170;8.210;2024-02-23T22:07:00;95516.22;;;5.57
1532;BMP280;759;53.170;8.210;2024-02-23T22:09:25;95436.28;;;5.58
1532;BMP280;759;53.170;8.210;2024-02-23T22:11:50;95436.53;;;5.60
1532;BMP280;759;53.170;8.210;2024-02-23T22:14:16;95482.03;;;5.65
1532;BMP280;759;53.170;8.210;2024-02-23T22:16:41;95480.13;;;5.71
1532;BMP280;759;53.170;8.210;2024-02-23T22:19:08;95476.31;;;5.77
1532;BMP280;759;53.170;8.210;2024-02-23T22:21:33;95550.75;;;5.85
1532;BMP280;759;53.170;8.210;2024-02-23T22:23:59;95564.75;;;5.91
1532;BMP280;759;53.170;8.210;2024-02-23T22:26:24;95650.34;;;5.97
1532;BMP280;759;53.170;8.210;2024-02-23T22:28:49;95684.06;;;5.97
1532;BMP280;759;53.170;8.210;2024-02-23T22:31:14;95754.28;;;6.07
1532;BMP280;759;53.170;8.210;2024-02-23T22:33:39;95817.69;;;6.11
1532;BMP280;759;53.170;8.210;2024-02-23T22:36:05;95824.00;;;6.19
1532;BMP280;759;53.170;8.210;2024-02-23T22:38:30;95920.00;;;6.23
1532;BMP280;759;53.170;8.210;2024-02-23T22:40:55;95973.06;;;6.23
1532;BMP280;759;53.170;8.210;2024-02-23T22:43:20;95992.81;;;6.22
1532;BMP280;759;53.170;8.210;2024-02-23T22:45:45;96035.78;;;6.26
1532;BMP280;759;53.170;8.210;2024-02-23T22:48:11;96028.06;;;6.28
1532;BMP280;759;53.170;8.210;2024-02-23T22:50:37;96055.28;;;6.23
1532;BMP280;759;53.170;8.210;2024-02-23T22:53:02;96067.09;;;6.22
1532;BMP280;759;53.170;8.210;2024-02-23T22:55:29;96057.94;;;6.23
1532;BMP280;759;53.170;8.210;2024-02-23T22:57:55;96069.47;;;6.20
1532;BMP280;759;53.170;8.210;2024-02-23T23:00:20;96036.19;;;6.19
1532;BMP280;759;53.170;8.210;2024-02-23T23:02:45;96039.78;;;6.16
1532;BMP280;759;53.170;8.210;2024-02-23T23:05:10;96035.88;;;6.11
1532;BMP280;759;53.170;8.210;2024-02-23T23:07:36;95986.91;;;6.07
1532;BMP280;759;53.170;8.210;2024-02-23T23:10:04;95994.06;;;6.00
1532;BMP280;759;53.170;8.210;2024-02-23T23:12:29;95946.03;;;5.93
1532;BMP280;759;53.170;8.210;2024-02-23T23:14:55;95890.31;;;5.87
1532;BMP280;759;53.170;8.210;2024-02-23T23:17:20;95876.03;;;5.79
1532;BMP280;759;53.170;8.210;2024-02-23T23:19:45;95791.84;;;5.68
1532;BMP280;759;53.170;8.210;2024-02-23T23:22:11;95774.72;;;5.64
1532;BMP280;759;53.170;8.210;2024-02-23T23:24:36;95735.41;;;5.56
1532;BMP280;759;53.170;8.210;2024-02-23T23:27:01;95703.09;;;5.52
1532;BMP280;759;53.170;8.210;2024-02-23T23:29:26;95644.75;;;5.41
1532;BMP280;759;53.170;8.210;2024-02-23T23:31:52;95575.38;;;5.37
1532;BMP280;759;53.170;8.210;2024-02-23T23:34:17;95566.69;;;5.31
1532;BMP280;759;53.170;8.210;2024-02-23T23:36:44;95486.00;;;5.26
1532;BMP280;759;53.170;8.210;2024-02-23T23:39:09;95410.66;;;5.21
1532;BMP280;759;53.170;8.210;2024-02-23T23:41:34;95422.41;;;5.15
1532;BMP280;759;53.170;8.210;2024-02-23T23:43:59;95362.47;;;5.12
1532;BMP280;759;53.170;8.210;2024-02-23T23:46:24;95319.84;;;5.04
1532;BMP280;759;53.170;8.210;2024-02-23T23:48:49;95258.00;;;5.01
1532;BMP280;759;53.170;8.210;2024-02-23T23:51:15;95215.69;;;4.96
1532;BMP280;759;53.170;8.210;2024-02-23T23:53:40;95203.16;;;4.91
1532;BMP280;759;53.170;8.210;2024-02-23T23:56:07;95139.38;;;4.83
1532;BMP280;759;53.170;8.210;2024-02-23T23:58:32;95078.53;;;4.77
